Time;durP1;ratioP1;P1;durP2;ratioP2;P2;SDS_P1;SDS_P2;PMS_P1;PMS_P2;Temp;Humidity;BMP_temperature;BMP_pressure;BME280_temperature;BME280_humidity;BME280_pressure;Samples;Min_cycle;Max_cycle;Signal;HPM_P1;HPM_P2
2023/07/28 00:01:57;;;;;;;1.42;1.30;;;;;;;;;;5101276;28;20605;-64
2023/07/28 00:04:25;;;;;;;2.95;1.45;;;;;;;;;;5101232;28;20281;-64
2023/07/28 00:06:54;;;;;;;1.65;1.33;;;;;;;;;;5098943;28;20214;-64
2023/07/28 00:09:22;;;;;;;1.50;1.40;;;;;;;;;;5066842;28;20245;-64
2023/07/28 00:11:50;;;;;;;1.30;1.20;;;;;;;;;;5066881;28;20204;-64
2023/07/28 00:14:18;;;;;;;1.50;1.40;;;;;;;;;;5069257;28;20203;-64
2023/07/28 00:16:46;;;;;;;2.13;1.55;;;;;;;;;;5070409;28;20200;-64
2023/07/28 00:19:13;;;;;;;1.92;1.48;;;;;;;;;;5092361;28;20671;-64
2023/07/28 00:21:41;;;;;;;1.70;1.52;;;;;;;;;;5100930;28;20203;-64
2023/07/28 00:24:10;;;;;;;1.70;1.60;;;;;;;;;;5101259;28;20294;-64
2023/07/28 00:26:38;;;;;;;1.45;1.35;;;;;;;;;;5100811;28;20204;-63
2023/07/28 00:29:06;;;;;;;1.33;1.23;;;;;;;;;;5114051;28;20222;-64
2023/07/28 00:31:34;;;;;;;1.70;1.52;;;;;;;;;;5120825;28;20662;-64
2023/07/28 00:34:01;;;;;;;1.67;1.35;;;;;;;;;;5121363;28;20203;-64
2023/07/28 00:36:29;;;;;;;1.60;1.40;;;;;;;;;;5100845;28;20316;-63
2023/07/28 00:38:57;;;;;;;1.60;1.50;;;;;;;;;;5100986;28;20261;-64
2023/07/28 00:41:26;;;;;;;1.92;1.30;;;;;;;;;;5100872;28;20499;-65
2023/07/28 00:43:53;;;;;;;1.48;1.38;;;;;;;;;;5100674;28;20215;-64
2023/07/28 00:46:21;;;;;;;1.55;1.45;;;;;;;;;;5100812;28;20495;-64
2023/07/28 00:48:49;;;;;;;1.73;1.48;;;;;;;;;;5100673;28;20227;-64
2023/07/28 00:51:17;;;;;;;1.90;1.48;;;;;;;;;;5100555;28;20214;-64
2023/07/28 00:53:45;;;;;;;1.50;1.40;;;;;;;;;;5100567;28;20214;-64
2023/07/28 00:56:13;;;;;;;1.55;1.40;;;;;;;;;;5100790;28;20203;-64
2023/07/28 00:58:42;;;;;;;2.55;1.35;;;;;;;;;;5100324;28;20208;-64
2023/07/28 01:01:09;;;;;;;1.40;1.30;;;;;;;;;;5100312;28;20503;-64
2023/07/28 01:03:37;;;;;;;1.58;1.48;;;;;;;;;;5100290;28;20259;-63
2023/07/28 01:06:11;;;;;;;1.73;1.48;;;;;;;;;;5100267;28;20228;-64
2023/07/28 01:08:40;;;;;;;1.50;1.40;;;;;;;;;;5100353;28;20228;-64
2023/07/28 01:11:08;;;;;;;1.60;1.23;;;;;;;;;;5100090;28;21326;-64
2023/07/28 01:13:36;;;;;;;1.60;1.33;;;;;;;;;;5100029;28;20233;-64
2023/07/28 01:16:05;;;;;;;1.92;1.30;;;;;;;;;;5099793;28;20482;-64
2023/07/28 01:18:32;;;;;;;1.70;1.60;;;;;;;;;;5100202;28;20210;-64
2023/07/28 01:21:02;;;;;;;1.50;1.40;;;;;;;;;;5100207;28;20418;-63
2023/07/28 01:23:36;;;;;;;1.52;1.42;;;;;;;;;;5100160;28;20210;-64
2023/07/28 01:26:05;;;;;;;2.05;1.70;;;;;;;;;;5100013;28;20203;-65
2023/07/28 01:28:35;;;;;;;1.40;1.30;;;;;;;;;;5096671;28;20306;-64
2023/07/28 01:31:03;;;;;;;1.48;1.38;;;;;;;;;;5099671;28;20203;-64
2023/07/28 01:33:31;;;;;;;1.15;1.10;;;;;;;;;;5099800;28;20268;-64
2023/07/28 01:36:00;;;;;;;1.73;1.30;;;;;;;;;;5115463;28;20247;-64
2023/07/28 01:38:28;;;;;;;1.40;1.30;;;;;;;;;;5120024;28;20551;-63
2023/07/28 01:40:55;;;;;;;1.33;1.23;;;;;;;;;;5120033;28;20203;-63
2023/07/28 01:43:23;;;;;;;1.58;1.20;;;;;;;;;;5119989;28;20305;-63
2023/07/28 01:45:52;;;;;;;1.40;1.30;;;;;;;;;;5119575;28;20294;-65
2023/07/28 01:48:20;;;;;;;1.58;1.48;;;;;;;;;;5119253;28;20206;-63
2023/07/28 01:50:47;;;;;;;1.17;1.17;;;;;;;;;;5119991;28;20264;-63
2023/07/28 01:53:15;;;;;;;1.58;1.30;;;;;;;;;;5120200;28;20485;-64
2023/07/28 01:55:43;;;;;;;1.55;1.30;;;;;;;;;;5119460;28;20203;-64
2023/07/28 01:58:10;;;;;;;2.08;1.10;;;;;;;;;;5119596;28;20214;-64
2023/07/28 02:00:38;;;;;;;1.20;1.10;;;;;;;;;;5119263;28;20203;-64
2023/07/28 02:03:08;;;;;;;1.15;0.90;;;;;;;;;;5119643;28;20202;-63
2023/07/28 02:05:35;;;;;;;1.55;1.13;;;;;;;;;;5121260;28;20254;-64
2023/07/28 02:08:03;;;;;;;1.33;1.23;;;;;;;;;;5119151;28;20207;-64
2023/07/28 02:10:31;;;;;;;1.55;1.00;;;;;;;;;;5119050;28;20231;-64
2023/07/28 02:12:59;;;;;;;1.20;1.10;;;;;;;;;;5120171;28;20203;-64
2023/07/28 02:15:27;;;;;;;1.00;1.00;;;;;;;;;;5119104;28;20286;-64
2023/07/28 02:17:54;;;;;;;1.77;1.13;;;;;;;;;;5119085;28;20209;-64
2023/07/28 02:20:23;;;;;;;1.70;1.00;;;;;;;;;;5119700;28;20283;-64
2023/07/28 02:22:51;;;;;;;1.10;0.90;;;;;;;;;;5119204;28;20591;-64
2023/07/28 02:25:18;;;;;;;1.60;0.90;;;;;;;;;;5119064;28;20209;-64
2023/07/28 02:27:46;;;;;;;0.90;0.90;;;;;;;;;;5119068;28;20207;-63
2023/07/28 02:30:14;;;;;;;1.00;1.00;;;;;;;;;;5118550;28;20237;-64
2023/07/28 02:32:41;;;;;;;1.02;0.80;;;;;;;;;;5118874;28;20211;-64
2023/07/28 02:35:10;;;;;;;0.90;0.90;;;;;;;;;;5119362;28;20257;-64
2023/07/28 02:37:39;;;;;;;1.10;1.00;;;;;;;;;;5119101;28;20218;-64
2023/07/28 02:40:07;;;;;;;1.33;0.90;;;;;;;;;;5117982;28;20209;-64
2023/07/28 02:42:35;;;;;;;1.45;0.80;;;;;;;;;;5118589;28;20225;-64
2023/07/28 02:45:03;;;;;;;1.15;1.00;;;;;;;;;;5118999;28;20586;-64
2023/07/28 02:47:31;;;;;;;1.23;0.80;;;;;;;;;;5119458;28;20455;-63
2023/07/28 02:49:59;;;;;;;1.10;1.00;;;;;;;;;;5118352;28;20230;-64
2023/07/28 02:52:26;;;;;;;1.02;0.90;;;;;;;;;;5118419;28;20202;-64
2023/07/28 02:54:55;;;;;;;1.40;1.00;;;;;;;;;;5118021;28;20203;-63
2023/07/28 02:57:23;;;;;;;1.30;0.73;;;;;;;;;;5118126;28;20206;-64
2023/07/28 02:59:51;;;;;;;0.77;0.68;;;;;;;;;;5118345;28;20551;-63
2023/07/28 03:02:18;;;;;;;1.98;0.95;;;;;;;;;;5110584;28;20203;-64
2023/07/28 03:04:46;;;;;;;1.00;1.00;;;;;;;;;;5118209;28;20626;-63
2023/07/28 03:07:13;;;;;;;1.02;0.90;;;;;;;;;;5118618;28;20195;-64
2023/07/28 03:09:41;;;;;;;1.30;0.85;;;;;;;;;;5118707;28;20249;-63
2023/07/28 03:12:11;;;;;;;1.00;0.90;;;;;;;;;;5118405;28;20336;-64
2023/07/28 03:14:39;;;;;;;0.90;0.90;;;;;;;;;;5118048;28;20210;-68
2023/07/28 03:17:07;;;;;;;1.30;0.80;;;;;;;;;;5118046;28;20257;-64
2023/07/28 03:19:34;;;;;;;0.70;0.70;;;;;;;;;;5117979;28;20260;-63
2023/07/28 03:22:02;;;;;;;0.70;0.70;;;;;;;;;;5118486;28;20210;-64
2023/07/28 03:24:30;;;;;;;0.80;0.80;;;;;;;;;;5118158;28;20602;-63
2023/07/28 03:26:58;;;;;;;0.82;0.80;;;;;;;;;;5118177;28;20221;-63
2023/07/28 03:29:27;;;;;;;1.45;1.00;;;;;;;;;;5101018;28;20224;-63
2023/07/28 03:31:54;;;;;;;0.90;0.90;;;;;;;;;;5097624;28;20204;-64
2023/07/28 03:34:22;;;;;;;1.10;0.90;;;;;;;;;;5099131;28;20253;-63
2023/07/28 03:36:50;;;;;;;0.90;0.80;;;;;;;;;;5117885;28;20246;-63
2023/07/28 03:39:18;;;;;;;0.98;0.75;;;;;;;;;;5117545;28;20199;-63
2023/07/28 03:41:45;;;;;;;0.93;0.88;;;;;;;;;;5118228;28;20230;-64
2023/07/28 03:44:13;;;;;;;1.08;0.70;;;;;;;;;;5117466;28;20210;-63
2023/07/28 03:46:42;;;;;;;1.05;0.60;;;;;;;;;;5117672;28;20203;-63
2023/07/28 03:49:10;;;;;;;0.60;0.57;;;;;;;;;;5117740;28;20218;-63
2023/07/28 03:51:38;;;;;;;0.77;0.77;;;;;;;;;;5117999;28;20463;-64
2023/07/28 03:54:05;;;;;;;0.60;0.60;;;;;;;;;;5117487;28;20203;-63
2023/07/28 03:56:33;;;;;;;0.80;0.70;;;;;;;;;;5117962;28;20214;-64
2023/07/28 03:59:01;;;;;;;1.85;0.70;;;;;;;;;;5117670;28;20203;-63
2023/07/28 04:01:28;;;;;;;1.15;0.63;;;;;;;;;;5117399;28;20520;-63
2023/07/28 04:03:58;;;;;;;1.17;0.80;;;;;;;;;;5117578;28;20267;-63
2023/07/28 04:06:40;;;;;;;0.93;0.70;;;;;;;;;;5117922;28;20203;-64
2023/07/28 04:09:08;;;;;;;0.70;0.63;;;;;;;;;;5117543;28;20219;-63
2023/07/28 04:11:35;;;;;;;1.15;0.60;;;;;;;;;;5120224;28;20636;-63
2023/07/28 04:14:02;;;;;;;1.45;0.65;;;;;;;;;;5121441;28;20306;-64
2023/07/28 04:16:30;;;;;;;0.73;0.70;;;;;;;;;;5121058;28;20218;-65
2023/07/28 04:18:59;;;;;;;1.95;0.70;;;;;;;;;;5121768;28;20276;-65
2023/07/28 04:21:27;;;;;;;0.63;0.63;;;;;;;;;;5121026;28;20203;-64
2023/07/28 04:23:54;;;;;;;1.40;0.73;;;;;;;;;;5121096;28;20203;-63
2023/07/28 04:26:22;;;;;;;0.60;0.60;;;;;;;;;;5121656;28;20297;-63
2023/07/28 04:28:49;;;;;;;0.55;0.55;;;;;;;;;;5120763;28;20263;-65
2023/07/28 04:31:17;;;;;;;0.50;0.50;;;;;;;;;;5120508;28;20309;-63
2023/07/28 04:33:45;;;;;;;0.70;0.70;;;;;;;;;;5119810;28;20294;-63
2023/07/28 04:36:13;;;;;;;0.70;0.70;;;;;;;;;;5120197;28;20313;-63
2023/07/28 04:38:41;;;;;;;1.15;0.68;;;;;;;;;;5120533;28;20202;-65
2023/07/28 04:41:08;;;;;;;0.63;0.63;;;;;;;;;;5120470;28;20575;-63
2023/07/28 04:43:36;;;;;;;0.65;0.50;;;;;;;;;;5120131;28;20203;-63
2023/07/28 04:46:03;;;;;;;2.00;0.60;;;;;;;;;;5120881;28;20230;-63
2023/07/28 04:48:31;;;;;;;0.65;0.60;;;;;;;;;;5120463;28;20203;-63
2023/07/28 04:50:58;;;;;;;0.75;0.63;;;;;;;;;;5111300;28;20604;-63
2023/07/28 04:53:27;;;;;;;0.70;0.70;;;;;;;;;;5119855;28;20289;-64
2023/07/28 04:55:55;;;;;;;1.20;0.70;;;;;;;;;;5120105;28;20234;-63
2023/07/28 04:58:22;;;;;;;0.60;0.60;;;;;;;;;;5120349;28;20335;-63
2023/07/28 05:00:50;;;;;;;0.90;0.60;;;;;;;;;;5119825;28;20301;-63
2023/07/28 05:03:17;;;;;;;1.40;0.70;;;;;;;;;;5119370;28;20571;-63
2023/07/28 05:05:45;;;;;;;0.98;0.60;;;;;;;;;;5119567;28;20537;-63
2023/07/28 05:08:12;;;;;;;1.10;0.50;;;;;;;;;;5119798;28;20611;-63
2023/07/28 05:10:42;;;;;;;0.60;0.60;;;;;;;;;;5119674;28;20218;-63
2023/07/28 05:13:10;;;;;;;1.52;0.57;;;;;;;;;;5119465;28;20229;-64
2023/07/28 05:15:38;;;;;;;1.95;0.60;;;;;;;;;;5118759;28;20298;-64
2023/07/28 05:18:05;;;;;;;0.70;0.57;;;;;;;;;;5120020;28;20233;-64
2023/07/28 05:20:32;;;;;;;0.50;0.40;;;;;;;;;;5119267;28;20199;-64
2023/07/28 05:23:00;;;;;;;0.73;0.50;;;;;;;;;;5118447;28;20207;-64
2023/07/28 05:25:28;;;;;;;0.68;0.50;;;;;;;;;;5118802;28;20214;-64
2023/07/28 05:27:56;;;;;;;0.50;0.50;;;;;;;;;;5118723;28;20242;-64
2023/07/28 05:30:24;;;;;;;0.50;0.50;;;;;;;;;;5119776;28;20313;-64
2023/07/28 05:32:51;;;;;;;0.60;0.50;;;;;;;;;;5118565;28;20209;-64
2023/07/28 05:35:20;;;;;;;2.83;0.60;;;;;;;;;;5119065;28;20223;-64
2023/07/28 05:37:47;;;;;;;1.17;0.60;;;;;;;;;;5118961;28;20203;-64
2023/07/28 05:40:15;;;;;;;0.57;0.50;;;;;;;;;;5118959;28;20195;-64
2023/07/28 05:42:44;;;;;;;0.80;0.60;;;;;;;;;;5119066;28;20275;-64
2023/07/28 05:45:13;;;;;;;1.10;0.80;;;;;;;;;;5118946;28;20216;-65
2023/07/28 05:47:40;;;;;;;0.60;0.52;;;;;;;;;;5119017;28;20202;-64
2023/07/28 05:50:08;;;;;;;1.13;0.90;;;;;;;;;;5118158;28;20262;-64
2023/07/28 05:52:36;;;;;;;0.80;0.73;;;;;;;;;;5118418;28;20297;-64
2023/07/28 05:55:03;;;;;;;1.90;0.88;;;;;;;;;;5118134;28;20461;-64
2023/07/28 05:57:31;;;;;;;1.83;1.15;;;;;;;;;;5118628;28;20616;-64
2023/07/28 05:59:58;;;;;;;1.83;0.80;;;;;;;;;;5118570;28;20293;-64
2023/07/28 06:02:27;;;;;;;1.38;1.20;;;;;;;;;;5117472;28;20256;-64
2023/07/28 06:04:55;;;;;;;1.98;1.50;;;;;;;;;;5118306;28;20255;-63
2023/07/28 06:07:22;;;;;;;2.92;1.00;;;;;;;;;;5118447;28;20237;-64
2023/07/28 06:09:50;;;;;;;1.77;1.10;;;;;;;;;;5117794;28;20323;-64
2023/07/28 06:12:17;;;;;;;1.48;1.27;;;;;;;;;;5118034;28;20297;-64
2023/07/28 06:14:45;;;;;;;2.83;1.20;;;;;;;;;;5117860;28;20234;-64
2023/07/28 06:17:12;;;;;;;1.80;1.20;;;;;;;;;;5118496;28;20315;-64
2023/07/28 06:19:41;;;;;;;1.58;0.95;;;;;;;;;;5117697;28;20302;-64
2023/07/28 06:22:08;;;;;;;1.88;1.00;;;;;;;;;;5117690;28;20302;-64
2023/07/28 06:24:36;;;;;;;1.77;1.15;;;;;;;;;;5117438;28;20693;-64
2023/07/28 06:27:07;;;;;;;2.40;1.45;;;;;;;;;;5118455;28;20528;-64
2023/07/28 06:29:35;;;;;;;1.90;0.90;;;;;;;;;;5117281;28;20476;-64
2023/07/28 06:32:02;;;;;;;1.42;0.90;;;;;;;;;;5116912;28;20571;-64
2023/07/28 06:34:30;;;;;;;1.63;0.95;;;;;;;;;;5116674;28;20329;-64
2023/07/28 06:36:59;;;;;;;2.00;1.23;;;;;;;;;;5117554;28;20199;-64
2023/07/28 06:39:27;;;;;;;1.40;1.00;;;;;;;;;;5117587;28;20297;-64
2023/07/28 06:41:54;;;;;;;1.35;1.00;;;;;;;;;;5116711;28;20229;-64
2023/07/28 06:44:22;;;;;;;1.75;1.15;;;;;;;;;;5117464;28;20268;-64
2023/07/28 06:46:49;;;;;;;1.42;0.90;;;;;;;;;;5117188;28;20263;-64
2023/07/28 06:49:17;;;;;;;1.58;0.80;;;;;;;;;;5116782;28;20238;-64
2023/07/28 06:51:44;;;;;;;2.55;1.23;;;;;;;;;;5115840;28;20322;-64
2023/07/28 06:54:13;;;;;;;1.60;1.00;;;;;;;;;;5116447;28;20594;-64
2023/07/28 06:56:41;;;;;;;1.65;0.90;;;;;;;;;;5116949;28;20242;-64
2023/07/28 06:59:08;;;;;;;1.23;0.95;;;;;;;;;;5116571;28;20755;-64
2023/07/28 07:01:36;;;;;;;1.48;0.90;;;;;;;;;;5116447;28;20210;-64
2023/07/28 07:04:04;;;;;;;1.50;1.20;;;;;;;;;;5116646;28;20679;-64
2023/07/28 07:06:32;;;;;;;1.20;1.00;;;;;;;;;;5116976;28;20285;-64
2023/07/28 07:08:59;;;;;;;1.70;1.08;;;;;;;;;;5116219;28;20203;-64
2023/07/28 07:11:28;;;;;;;2.05;1.42;;;;;;;;;;5116341;28;20262;-64
2023/07/28 07:13:56;;;;;;;1.70;1.10;;;;;;;;;;5117069;28;20305;-64
2023/07/28 07:16:23;;;;;;;1.27;0.98;;;;;;;;;;5116902;28;20332;-64
2023/07/28 07:18:52;;;;;;;1.48;1.02;;;;;;;;;;5116792;28;20203;-64
2023/07/28 07:21:20;;;;;;;1.20;1.05;;;;;;;;;;5116398;28;20276;-64
2023/07/28 07:23:47;;;;;;;0.70;0.70;;;;;;;;;;5117012;28;20302;-64
2023/07/28 07:26:14;;;;;;;0.80;0.80;;;;;;;;;;5116753;28;20206;-64
2023/07/28 07:28:43;;;;;;;0.93;0.70;;;;;;;;;;5116495;28;20522;-65
2023/07/28 07:31:14;;;;;;;0.90;0.90;;;;;;;;;;5116745;28;20229;-64
2023/07/28 07:33:41;;;;;;;1.02;0.82;;;;;;;;;;5116388;28;20199;-64
2023/07/28 07:36:13;;;;;;;1.65;1.10;;;;;;;;;;5115432;28;20684;-64
2023/07/28 07:38:41;;;;;;;1.52;1.20;;;;;;;;;;5116029;28;20510;-64
2023/07/28 07:41:11;;;;;;;1.63;1.00;;;;;;;;;;5115522;28;20206;-64
2023/07/28 07:43:38;;;;;;;1.20;1.10;;;;;;;;;;5115505;28;20203;-64
2023/07/28 07:46:07;;;;;;;1.10;1.00;;;;;;;;;;5117164;28;20214;-64
2023/07/28 07:48:34;;;;;;;1.10;1.00;;;;;;;;;;5119919;28;20203;-65
2023/07/28 07:51:02;;;;;;;1.25;0.90;;;;;;;;;;5120201;28;20314;-64
2023/07/28 07:53:29;;;;;;;0.82;0.82;;;;;;;;;;5120184;28;20585;-64
2023/07/28 07:55:57;;;;;;;0.95;0.90;;;;;;;;;;5120101;28;20195;-64
2023/07/28 07:58:24;;;;;;;1.25;1.15;;;;;;;;;;5120619;28;20561;-64
2023/07/28 08:00:52;;;;;;;1.80;1.65;;;;;;;;;;5119596;28;20238;-64
2023/07/28 08:03:21;;;;;;;2.65;1.65;;;;;;;;;;5119572;28;20268;-64
2023/07/28 08:05:48;;;;;;;1.98;1.70;;;;;;;;;;5120177;28;20207;-64
2023/07/28 08:08:17;;;;;;;1.80;1.70;;;;;;;;;;5120146;28;20264;-64
2023/07/28 08:10:44;;;;;;;1.50;1.38;;;;;;;;;;5119489;28;20754;-64
2023/07/28 08:13:12;;;;;;;1.70;1.60;;;;;;;;;;5119526;28;20203;-64
2023/07/28 08:15:39;;;;;;;1.70;1.60;;;;;;;;;;5119803;28;20207;-64
2023/07/28 08:18:07;;;;;;;1.60;1.50;;;;;;;;;;5119974;28;20586;-64
2023/07/28 08:20:36;;;;;;;1.73;1.40;;;;;;;;;;5120384;28;20203;-64
2023/07/28 08:23:03;;;;;;;1.20;1.10;;;;;;;;;;5120112;28;20286;-64
2023/07/28 08:25:31;;;;;;;1.20;1.10;;;;;;;;;;5119545;28;20267;-64
2023/07/28 08:27:58;;;;;;;1.88;1.20;;;;;;;;;;5114190;28;20192;-64
2023/07/28 08:30:26;;;;;;;1.10;1.00;;;;;;;;;;5098164;28;20498;-64
2023/07/28 08:32:53;;;;;;;1.30;1.20;;;;;;;;;;5098361;28;20305;-64
2023/07/28 08:35:21;;;;;;;3.08;1.38;;;;;;;;;;5107952;28;20234;-64
2023/07/28 08:37:49;;;;;;;1.20;1.10;;;;;;;;;;5119776;28;20542;-64
2023/07/28 08:40:19;;;;;;;1.27;1.17;;;;;;;;;;5118222;28;20238;-64
2023/07/28 08:42:46;;;;;;;1.20;1.10;;;;;;;;;;5119153;28;20602;-64
2023/07/28 08:45:14;;;;;;;1.00;1.00;;;;;;;;;;5119290;28;20302;-64
2023/07/28 08:47:41;;;;;;;1.38;1.27;;;;;;;;;;5119087;28;20213;-64
2023/07/28 08:50:09;;;;;;;1.20;1.10;;;;;;;;;;5118215;28;20217;-63
2023/07/28 08:52:37;;;;;;;1.15;1.00;;;;;;;;;;5118583;28;20833;-64
2023/07/28 08:55:06;;;;;;;1.30;1.20;;;;;;;;;;5118748;28;20234;-64
2023/07/28 08:57:33;;;;;;;1.30;1.15;;;;;;;;;;5118879;28;20211;-63
2023/07/28 09:00:08;;;;;;;1.35;1.25;;;;;;;;;;5119262;28;20557;-64
2023/07/28 09:02:35;;;;;;;1.40;1.10;;;;;;;;;;5119070;28;20198;-63
2023/07/28 09:05:05;;;;;;;1.02;1.02;;;;;;;;;;5117957;28;20730;-64
2023/07/28 09:07:36;;;;;;;1.30;1.20;;;;;;;;;;5117956;28;20239;-67
2023/07/28 09:10:04;;;;;;;1.92;1.20;;;;;;;;;;5118923;28;20203;-64
2023/07/28 09:12:34;;;;;;;1.50;1.40;;;;;;;;;;5119184;28;20250;-64
2023/07/28 09:15:01;;;;;;;1.30;1.20;;;;;;;;;;5118650;28;20268;-64
2023/07/28 09:17:34;;;;;;;1.40;1.23;;;;;;;;;;5118963;28;20710;-64
2023/07/28 09:20:01;;;;;;;1.45;1.35;;;;;;;;;;5118954;28;20203;-64
2023/07/28 09:22:31;;;;;;;2.28;1.40;;;;;;;;;;5119280;28;20279;-64
2023/07/28 09:24:59;;;;;;;1.10;1.00;;;;;;;;;;5118582;28;20195;-64
2023/07/28 09:27:29;;;;;;;1.50;1.10;;;;;;;;;;5118982;28;20294;-64
2023/07/28 09:29:58;;;;;;;1.23;1.10;;;;;;;;;;5098114;28;20671;-64
2023/07/28 09:32:30;;;;;;;0.93;0.93;;;;;;;;;;5097484;28;20259;-64
2023/07/28 09:35:09;;;;;;;1.35;1.25;;;;;;;;;;5097381;28;20232;-64
2023/07/28 09:37:38;;;;;;;2.20;1.40;;;;;;;;;;5097568;28;20530;-64
2023/07/28 09:40:10;;;;;;;1.63;1.08;;;;;;;;;;5097609;28;20471;-64
2023/07/28 09:42:37;;;;;;;1.83;1.10;;;;;;;;;;5097475;28;20228;-64
2023/07/28 09:45:08;;;;;;;1.20;1.10;;;;;;;;;;5098173;28;20211;-64
2023/07/28 09:47:36;;;;;;;1.05;1.05;;;;;;;;;;5097252;28;20235;-64
2023/07/28 09:50:05;;;;;;;1.33;1.10;;;;;;;;;;5097554;28;20282;-64
2023/07/28 09:52:35;;;;;;;1.25;1.17;;;;;;;;;;5097849;28;20228;-64
2023/07/28 09:55:06;;;;;;;1.00;1.00;;;;;;;;;;5097211;28;20207;-63
2023/07/28 09:57:35;;;;;;;1.10;1.10;;;;;;;;;;5096543;28;20258;-63
2023/07/28 10:00:04;;;;;;;1.75;1.30;;;;;;;;;;5096515;28;20600;-64
2023/07/28 10:02:33;;;;;;;1.48;1.38;;;;;;;;;;5096201;28;20199;-63
2023/07/28 10:05:01;;;;;;;1.30;1.20;;;;;;;;;;5096567;28;20199;-64
2023/07/28 10:07:28;;;;;;;1.30;1.20;;;;;;;;;;5096204;28;20204;-63
2023/07/28 10:09:56;;;;;;;1.55;1.23;;;;;;;;;;5096863;28;20522;-64
2023/07/28 10:12:25;;;;;;;1.05;1.05;;;;;;;;;;5096531;28;20224;-64
2023/07/28 10:15:02;;;;;;;1.27;1.27;;;;;;;;;;5095886;28;20200;-64
2023/07/28 10:17:34;;;;;;;1.40;1.30;;;;;;;;;;5095667;28;20203;-64
2023/07/28 10:20:02;;;;;;;1.58;1.33;;;;;;;;;;5096386;28;20294;-64
2023/07/28 10:22:29;;;;;;;1.50;1.40;;;;;;;;;;5096737;28;20208;-64
2023/07/28 10:24:58;;;;;;;1.48;1.38;;;;;;;;;;5096455;28;20310;-64
2023/07/28 10:27:33;;;;;;;1.67;1.58;;;;;;;;;;5096341;28;20207;-65
2023/07/28 10:30:03;;;;;;;1.83;1.50;;;;;;;;;;5096665;28;20318;-64
2023/07/28 10:32:30;;;;;;;1.42;1.33;;;;;;;;;;5096436;28;20234;-64
2023/07/28 10:35:05;;;;;;;1.55;1.45;;;;;;;;;;5096956;28;20261;-65
2023/07/28 10:37:32;;;;;;;1.60;1.50;;;;;;;;;;5096075;28;20199;-64
2023/07/28 10:40:21;;;;;;;1.48;1.38;;;;;;;;;;5095824;28;20583;-64
2023/07/28 10:42:49;;;;;;;1.40;1.30;;;;;;;;;;5095812;28;20603;-64
2023/07/28 10:45:18;;;;;;;1.50;1.40;;;;;;;;;;5095475;28;20531;-64
2023/07/28 10:47:45;;;;;;;1.67;1.58;;;;;;;;;;5095602;28;20204;-64
2023/07/28 10:50:14;;;;;;;1.75;1.63;;;;;;;;;;5095393;28;20666;-64
2023/07/28 10:52:42;;;;;;;1.55;1.45;;;;;;;;;;5096165;28;20267;-64
2023/07/28 10:55:15;;;;;;;1.55;1.45;;;;;;;;;;5095792;28;20471;-64
2023/07/28 10:57:43;;;;;;;1.58;1.48;;;;;;;;;;5095598;28;20203;-64
2023/07/28 11:00:11;;;;;;;1.52;1.33;;;;;;;;;;5095599;28;20196;-64
2023/07/28 11:02:40;;;;;;;1.45;1.35;;;;;;;;;;5095981;28;20586;-64
2023/07/28 11:05:12;;;;;;;1.20;1.17;;;;;;;;;;5094929;28;20206;-65
2023/07/28 11:07:43;;;;;;;1.20;1.20;;;;;;;;;;5094859;28;20474;-64
2023/07/28 11:10:11;;;;;;;1.83;1.30;;;;;;;;;;5095634;28;20203;-64
2023/07/28 11:12:44;;;;;;;1.60;1.20;;;;;;;;;;5095492;28;20227;-64
2023/07/28 11:15:12;;;;;;;2.28;1.20;;;;;;;;;;5095401;28;20302;-64
2023/07/28 11:17:40;;;;;;;1.23;1.23;;;;;;;;;;5094647;28;20206;-64
2023/07/28 11:20:16;;;;;;;1.40;1.30;;;;;;;;;;5093819;28;20211;-64
2023/07/28 11:22:45;;;;;;;1.85;1.52;;;;;;;;;;5095632;28;20291;-64
2023/07/28 11:25:14;;;;;;;1.33;1.30;;;;;;;;;;5094672;28;20203;-64
2023/07/28 11:27:41;;;;;;;1.50;1.40;;;;;;;;;;5096490;28;20269;-64
2023/07/28 11:30:10;;;;;;;1.50;1.40;;;;;;;;;;5109761;28;20295;-64
2023/07/28 11:32:38;;;;;;;1.45;1.27;;;;;;;;;;5111745;28;20258;-64
2023/07/28 11:35:06;;;;;;;1.50;1.40;;;;;;;;;;5111289;28;20246;-64
2023/07/28 11:37:35;;;;;;;1.50;1.40;;;;;;;;;;5112818;28;20568;-64
2023/07/28 11:40:06;;;;;;;1.30;1.23;;;;;;;;;;5114645;28;20199;-64
2023/07/28 11:42:34;;;;;;;1.60;1.50;;;;;;;;;;5113678;28;20590;-65
2023/07/28 11:45:02;;;;;;;1.52;1.40;;;;;;;;;;5115212;28;20238;-64
2023/07/28 11:47:30;;;;;;;1.58;1.48;;;;;;;;;;5115205;28;20245;-64
2023/07/28 11:50:00;;;;;;;1.75;1.65;;;;;;;;;;5115098;28;20387;-64
2023/07/28 11:52:31;;;;;;;1.48;1.40;;;;;;;;;;5115049;28;20233;-64
2023/07/28 11:54:58;;;;;;;1.75;1.40;;;;;;;;;;5115865;28;20291;-64
2023/07/28 11:57:27;;;;;;;1.75;1.65;;;;;;;;;;5114767;28;20206;-64
2023/07/28 11:59:55;;;;;;;1.90;1.75;;;;;;;;;;5115067;28;20297;-64
2023/07/28 12:02:26;;;;;;;1.60;1.50;;;;;;;;;;5115516;28;20536;-64
2023/07/28 12:04:54;;;;;;;1.40;1.30;;;;;;;;;;5115189;28;20238;-64
2023/07/28 12:07:29;;;;;;;1.60;1.50;;;;;;;;;;5115173;28;20249;-65
2023/07/28 12:09:59;;;;;;;1.50;1.40;;;;;;;;;;5114552;28;20205;-65
2023/07/28 12:12:29;;;;;;;1.77;1.45;;;;;;;;;;5114923;28;20219;-65
2023/07/28 12:14:58;;;;;;;1.25;1.17;;;;;;;;;;5115228;28;20583;-64
2023/07/28 12:17:27;;;;;;;1.30;1.30;;;;;;;;;;5114553;28;20213;-65
2023/07/28 12:19:59;;;;;;;1.40;1.30;;;;;;;;;;5115146;28;20816;-64
2023/07/28 12:22:27;;;;;;;1.50;1.40;;;;;;;;;;5115254;28;20203;-64
2023/07/28 12:24:55;;;;;;;1.55;1.45;;;;;;;;;;5115431;28;20235;-64
2023/07/28 12:27:24;;;;;;;1.88;1.40;;;;;;;;;;5114700;28;20242;-64
2023/07/28 12:29:53;;;;;;;1.27;1.20;;;;;;;;;;5114932;28;20701;-65
2023/07/28 12:32:21;;;;;;;1.65;1.52;;;;;;;;;;5117391;28;20318;-65
2023/07/28 12:34:49;;;;;;;1.20;1.20;;;;;;;;;;5117738;28;20622;-64
2023/07/28 12:37:17;;;;;;;1.60;1.50;;;;;;;;;;5118005;28;20318;-64
2023/07/28 12:39:44;;;;;;;1.50;1.40;;;;;;;;;;5117332;28;20610;-65
2023/07/28 12:42:12;;;;;;;1.40;1.30;;;;;;;;;;5118679;28;20198;-64
2023/07/28 12:44:40;;;;;;;1.60;1.50;;;;;;;;;;5118156;28;20297;-65
2023/07/28 12:47:10;;;;;;;1.08;1.08;;;;;;;;;;5118790;28;20203;-64
2023/07/28 12:49:37;;;;;;;1.33;1.23;;;;;;;;;;5117526;28;20298;-65
2023/07/28 12:52:06;;;;;;;1.48;1.40;;;;;;;;;;5117878;28;20261;-64
2023/07/28 12:54:34;;;;;;;1.48;1.38;;;;;;;;;;5117616;28;20298;-65
2023/07/28 12:57:02;;;;;;;1.52;1.40;;;;;;;;;;5117415;28;20268;-64
2023/07/28 12:59:30;;;;;;;2.42;1.30;;;;;;;;;;5118004;28;20287;-65
2023/07/28 13:01:57;;;;;;;1.75;1.35;;;;;;;;;;5117740;28;20293;-64
2023/07/28 13:04:26;;;;;;;1.40;1.30;;;;;;;;;;5117207;28;20285;-64
2023/07/28 13:06:54;;;;;;;1.30;1.20;;;;;;;;;;5117534;28;20213;-64
2023/07/28 13:09:21;;;;;;;1.10;1.10;;;;;;;;;;5117515;28;20268;-64
2023/07/28 13:11:49;;;;;;;1.80;1.10;;;;;;;;;;5117911;28;20198;-64
2023/07/28 13:14:16;;;;;;;1.27;1.17;;;;;;;;;;5117572;28;20229;-64
2023/07/28 13:16:44;;;;;;;1.10;1.00;;;;;;;;;;5117543;28;20249;-64
2023/07/28 13:19:11;;;;;;;1.00;1.00;;;;;;;;;;5118256;28;20310;-64
2023/07/28 13:21:41;;;;;;;1.13;1.13;;;;;;;;;;5117038;28;20297;-64
2023/07/28 13:24:08;;;;;;;1.38;1.27;;;;;;;;;;5116517;28;20218;-65
2023/07/28 13:26:36;;;;;;;1.20;1.13;;;;;;;;;;5116593;28;20640;-65
2023/07/28 13:29:06;;;;;;;1.33;1.20;;;;;;;;;;5116578;28;20299;-64
2023/07/28 13:31:34;;;;;;;1.23;1.20;;;;;;;;;;5117169;28;20222;-64
2023/07/28 13:34:02;;;;;;;1.60;1.30;;;;;;;;;;5116747;28;20257;-65
2023/07/28 13:36:30;;;;;;;1.50;1.10;;;;;;;;;;5117404;28;20494;-64
2023/07/28 13:38:59;;;;;;;1.30;1.00;;;;;;;;;;5116854;28;20245;-65
2023/07/28 13:41:26;;;;;;;1.13;1.13;;;;;;;;;;5117625;28;20530;-65
2023/07/28 13:43:54;;;;;;;1.13;1.13;;;;;;;;;;5116465;28;20217;-64
2023/07/28 13:46:21;;;;;;;1.35;1.30;;;;;;;;;;5117178;28;20194;-64
2023/07/28 13:48:48;;;;;;;1.50;1.05;;;;;;;;;;5117073;28;20346;-64
2023/07/28 13:51:16;;;;;;;1.05;1.05;;;;;;;;;;5116727;28;20229;-65
2023/07/28 13:53:44;;;;;;;1.42;1.10;;;;;;;;;;5116982;28;20325;-64
2023/07/28 13:56:12;;;;;;;1.00;1.00;;;;;;;;;;5116283;28;20294;-64
2023/07/28 13:58:40;;;;;;;1.08;1.08;;;;;;;;;;5117023;28;20656;-64
2023/07/28 14:01:10;;;;;;;1.20;1.10;;;;;;;;;;5116901;28;20283;-64
2023/07/28 14:03:37;;;;;;;1.23;1.13;;;;;;;;;;5117128;28;20526;-65
2023/07/28 14:06:05;;;;;;;1.30;1.20;;;;;;;;;;5116214;28;20591;-65
2023/07/28 14:08:32;;;;;;;1.38;1.27;;;;;;;;;;5115835;28;20202;-64
2023/07/28 14:11:00;;;;;;;1.40;1.30;;;;;;;;;;5116569;28;20622;-64
2023/07/28 14:13:28;;;;;;;1.27;1.20;;;;;;;;;;5116280;28;20330;-64
2023/07/28 14:15:56;;;;;;;1.50;1.30;;;;;;;;;;5116420;28;20821;-65
2023/07/28 14:18:23;;;;;;;1.35;1.33;;;;;;;;;;5115812;28;20203;-65
2023/07/28 14:20:51;;;;;;;1.27;1.10;;;;;;;;;;5115880;28;20613;-64
2023/07/28 14:23:25;;;;;;;1.58;1.20;;;;;;;;;;5116009;28;20593;-64
2023/07/28 14:25:52;;;;;;;1.40;1.30;;;;;;;;;;5116437;28;20203;-64
2023/07/28 14:28:20;;;;;;;1.30;1.20;;;;;;;;;;5115935;28;20505;-64
2023/07/28 14:30:50;;;;;;;1.17;1.10;;;;;;;;;;5116495;28;20579;-65
2023/07/28 14:33:19;;;;;;;1.02;1.02;;;;;;;;;;5115442;28;20230;-66
2023/07/28 14:35:47;;;;;;;1.42;1.33;;;;;;;;;;5115875;28;20681;-64
2023/07/28 14:38:14;;;;;;;1.20;1.20;;;;;;;;;;5116155;28;20210;-64
2023/07/28 14:40:44;;;;;;;1.40;1.30;;;;;;;;;;5114664;28;20207;-64
2023/07/28 14:43:11;;;;;;;1.15;0.90;;;;;;;;;;5116469;28;20209;-64
2023/07/28 14:45:39;;;;;;;3.33;1.27;;;;;;;;;;5115410;28;20203;-64
2023/07/28 14:48:08;;;;;;;1.05;1.05;;;;;;;;;;5115475;28;20699;-64
2023/07/28 14:50:35;;;;;;;0.90;0.90;;;;;;;;;;5115439;28;20606;-64